Bookmark and Share
Track history (hours):
 

CSCL Oceania

Last reported at 2014-Apr-09 23:34 UTC. Time now 2014-Apr-25 06:01 UTC.
Position N 01°13' E 103°31'.
Warning: this ship's position is 15 days out of date.

Length 334 m; beam 42.8 m; draft 14.5 m.

Type: Cargo ship. MMSI: 477020300.

NotesDate/timePositionNaut miles runAvg speedWind from/ knotsBaromVisibWave heightAir tempDewpointWater temp
2014-Apr-09 23:34N 01°13' E 103°31'1414.0
2014-Apr-09 22:32N 01°09' E 103°45'1514.6
2014-Apr-09 21:30N 01°15' E 103°59'  
2014-Apr-06 12:17N 22°18' E 114°06'1210.9
2014-Apr-06 11:13N 22°22' E 113°54'6 9.2
2014-Apr-06 10:33N 22°28' E 113°52'1 0.6
2014-Apr-06 09:04N 22°29' E 113°52'0 0.0
2014-Apr-06 08:28N 22°29' E 113°52'0 0.0
2014-Apr-06 07:28N 22°29' E 113°52'0 0.0
2014-Apr-06 06:28N 22°29' E 113°52'0 0.0
2014-Apr-06 05:28N 22°29' E 113°52'0 0.0
2014-Apr-06 04:28N 22°29' E 113°52'0 0.1
2014-Apr-06 03:28N 22°29' E 113°52'0 0.0
2014-Apr-06 02:16N 22°29' E 113°52'0 0.0
2014-Apr-06 01:22N 22°29' E 113°52'0 0.0
2014-Apr-06 00:16N 22°29' E 113°52'0 0.0
2014-Apr-05 23:33N 22°29' E 113°52'5 5.0
2014-Apr-05 22:33N 22°24' E 113°54'12 8.2
2014-Apr-05 21:08N 22°20' E 114°05'2 1.8
2014-Apr-05 20:07N 22°20' E 114°07'0 0.0
2014-Apr-05 19:25N 22°20' E 114°07'0 0.0
2014-Apr-05 18:31N 22°20' E 114°07'0 0.0
2014-Apr-05 17:25N 22°20' E 114°07'0 0.0
2014-Apr-05 14:19N 22°20' E 114°07'0 0.0
2014-Apr-05 13:31N 22°20' E 114°07'0 0.0
2014-Apr-05 12:31N 22°20' E 114°07'0 0.0
2014-Apr-05 11:25N 22°20' E 114°07'0 0.0
2014-Apr-05 10:31N 22°20' E 114°07'0 0.0
2014-Apr-05 09:31N 22°20' E 114°07'0 0.0
2014-Apr-05 08:31N 22°20' E 114°07'0 0.0
2014-Apr-05 07:19N 22°20' E 114°07'2 2.3
2014-Apr-05 06:33N 22°19' E 114°06'1110.8
2014-Apr-05 05:33N 22°10' E 114°13'13813.7
2014-Apr-04 19:28N 22°41' E 116°38'1414.9
2014-Apr-04 18:33N 22°48' E 116°51'2014.8
2014-Apr-04 17:12N 23°00' E 117°08'1614.8
2014-Apr-04 16:05N 23°10' E 117°22'1114.7
2014-Apr-04 15:21N 23°16' E 117°32'1314.7
2014-Apr-04 14:30N 23°22' E 117°44'1414.6
2014-Apr-04 13:32N 23°30' E 117°56'1514.4
2014-Apr-04 12:32N 23°39' E 118°09'10 9.5
2014-Apr-04 11:31N 23°45' E 118°17'5 2.2
2014-Apr-04 09:22N 23°48' E 118°21'5 2.8
2014-Apr-04 07:28N 23°51' E 118°25'3 2.7
2014-Apr-04 06:28N 23°53' E 118°28'3510.8
2014-Apr-04 03:14N 24°15' E 118°57'2816.0
2014-Apr-04 01:27N 24°33' E 119°22'1515.2
2014-Apr-04 00:28N 24°43' E 119°34'31215.6
2014-Apr-03 04:25N 29°13' E 122°30'1715.9
2014-Apr-03 03:22N 29°29' E 122°31'1214.3
2014-Apr-03 02:33N 29°41' E 122°28'1211.8
2014-Apr-03 01:33N 29°47' E 122°16'10 9.7
2014-Apr-03 00:33N 29°48' E 122°05'5 4.6
2014-Apr-02 23:31N 29°46' E 122°00'0 0.0
2014-Apr-02 22:33N 29°46' E 122°00'0 0.0
2014-Apr-02 21:33N 29°46' E 122°00'0 0.0
2014-Apr-02 20:33N 29°46' E 122°00'0 0.0
2014-Apr-02 19:30N 29°46' E 122°00'0 0.0
2014-Apr-02 18:33N 29°46' E 122°00'0 0.0
2014-Apr-02 17:29N 29°46' E 122°00'0 0.0
2014-Apr-02 16:34N 29°46' E 122°00'0 0.0
2014-Apr-02 15:33N 29°46' E 122°00'0 0.0
2014-Apr-02 14:33N 29°46' E 122°00'0 0.0
2014-Apr-02 13:33N 29°46' E 122°00'0 0.0
2014-Apr-02 12:33N 29°46' E 122°00'0 0.0
2014-Apr-02 11:33N 29°46' E 122°00'0 0.0
2014-Apr-02 10:32N 29°46' E 122°00'0 0.0
2014-Apr-02 09:28N 29°46' E 122°00'0 0.0
2014-Apr-02 08:33N 29°46' E 122°00'0 0.0
2014-Apr-02 07:28N 29°46' E 122°00'2 2.5
2014-Apr-02 06:33N 29°47' E 122°03'7 7.2
2014-Apr-02 05:33N 29°50' E 122°10'1010.2
2014-Apr-02 04:34N 29°45' E 122°20'1616.4
2014-Apr-02 03:33N 29°50' E 122°38'3 3.3
2014-Apr-02 02:33N 29°49' E 122°42'1 1.0
2014-Apr-02 01:33N 29°49' E 122°43'2 1.6
2014-Apr-02 00:33N 29°48' E 122°44'3 2.8
2014-Apr-01 23:33N 29°49' E 122°47'7 7.3
2014-Apr-01 22:33N 29°53' E 122°54'4911.2
2014-Apr-01 18:12N 30°32' E 122°21'1015.4
2014-Apr-01 17:33N 30°34' E 122°10'6 3.0
2014-Apr-01 15:33N 30°37' E 122°04'0 0.1
2014-Apr-01 14:33N 30°37' E 122°04'0 0.0
2014-Apr-01 13:33N 30°37' E 122°04'0 0.0
2014-Apr-01 12:33N 30°37' E 122°04'0 0.0
2014-Apr-01 11:32N 30°37' E 122°04'0 0.0
2014-Apr-01 10:32N 30°37' E 122°04'0 0.0
2014-Apr-01 09:33N 30°37' E 122°04'0 0.0
2014-Apr-01 08:31N 30°37' E 122°04'0 0.0
2014-Apr-01 07:33N 30°37' E 122°04'0 0.0
2014-Apr-01 06:32N 30°37' E 122°04'0 0.0
2014-Apr-01 05:33N 30°37' E 122°04'0 0.1
2014-Apr-01 04:33N 30°37' E 122°04'0 0.1
2014-Apr-01 03:32N 30°37' E 122°04'0 0.0
2014-Apr-01 02:26N 30°37' E 122°04'0 0.0
2014-Apr-01 01:34N 30°37' E 122°04'0 0.0
2014-Mar-31 23:23N 30°37' E 122°04'0 0.0
2014-Mar-31 18:29N 30°37' E 122°04'0 0.0
2014-Mar-31 17:25N 30°37' E 122°04'0 0.0
2014-Mar-31 16:33N 30°37' E 122°04'0 0.0
2014-Mar-31 15:24N 30°37' E 122°04'0 0.0
2014-Mar-31 14:30N 30°37' E 122°04'0 0.0
2014-Mar-31 13:31N 30°37' E 122°04'0 0.0
2014-Mar-31 12:30N 30°37' E 122°04'0 0.0
2014-Mar-31 11:31N 30°37' E 122°04'0 0.0
2014-Mar-31 10:33N 30°37' E 122°04'4 4.0
2014-Mar-31 09:33N 30°35' E 122°08'10 9.6
2014-Mar-31 08:33N 30°33' E 122°18'7 6.6
2014-Mar-31 07:33N 30°33' E 122°26'  

Dump ship's entire track history

sailing weather and tide predictions

CSCL Oceania — VRBI2 — position and weather